Strona główna
METAR-TAF:

METAR-TAF

Lotnisko :

Port lotniczy Kuwejt

Kuwejt, Kuwejt

Szerokość geograficzna: 29-13N, Długość geograficzna: 047-59E, wysokość: 55 m

Aktualna obserwacja pogody

Raport powstał 1 godzina i 4 minut temu, godzina 18:00 UTC
Wiatr 11 kt od północny zachód
Temperatura 39°C
Wilgotność 15%
Ciśnienie 1000 hPa
Widzialność 10 km lub więcej
Brak chmur poniżej 1500 m i brak chmur cumulonimbus

METAR: OKBK 171800Z 32011KT CAVOK 39/08 Q1000 NOSIG

czas: 22:04 (19:04 UTC)

Prognoza

Raport powstał 2 godziny i 19 minut temu, godzina 16:45 UTC
Prognoza ważna od 17 godzina 18 UTC do 18 godzina 24 UTC
Wiatr 15 kt od północno-północny zachód w porywach dochodzący do 30 kt
Widzialność: 7000 m
Przejściowo
od 18 godzina 09 UTC do 19 godzina 18 UTC
Widzialność: 3000 m
zawieja pyłowa

TAF: OKBK 171645Z 1718/1824 33015G30KT 7000 NSC TEMPO 1809/1918 3000 BLDU

Obserwacja i prognoza pogody dla ponad 4000 lotnisk (raport METAR i TAF).

Dostępne stacje oznaczono żółtymi i czerwonymi punktami na mapie.

Najedź kursorem aby zobaczyć nazwę stacji.

Kliknij aby zobaczyć obserwacje i prognozy pogody.

Aby zmienić mapę: kliknij na zielony przycisk z czarnym krzyżykiem, aby powiększyć; na zielony przycisk z myślnikiem, aby pomniejszyć; na zielone strzałki, aby przejść do map sąsiednich.


METAR-TAF: